sensor_id;sensor_type;location;lat;lon;timestamp;noise_LAeq;noise_LA_min;noise_LA_max;noise_LA01;noise_LA95
41518;Laerm;27249;48.094;-1.690;2023-04-02T00:01:45;54.39;43.90;66.76;;
41518;Laerm;27249;48.094;-1.690;2023-04-02T00:04:01;54.29;42.71;64.51;;
41518;Laerm;27249;48.094;-1.690;2023-04-02T00:09:20;53.98;43.39;64.12;;
41518;Laerm;27249;48.094;-1.690;2023-04-02T00:11:47;50.71;42.76;59.84;;
41518;Laerm;27249;48.094;-1.690;2023-04-02T00:16:51;50.49;41.89;64.09;;
41518;Laerm;27249;48.094;-1.690;2023-04-02T00:22:00;51.03;42.65;63.12;;
41518;Laerm;27249;48.094;-1.690;2023-04-02T00:24:27;52.60;43.14;64.28;;
41518;Laerm;27249;48.094;-1.690;2023-04-02T00:26:52;53.69;42.22;62.72;;
41518;Laerm;27249;48.094;-1.690;2023-04-02T00:29:18;50.88;41.96;60.83;;
41518;Laerm;27249;48.094;-1.690;2023-04-02T00:31:44;50.73;42.53;62.06;;
41518;Laerm;27249;48.094;-1.690;2023-04-02T00:34:16;52.64;41.68;65.20;;
41518;Laerm;27249;48.094;-1.690;2023-04-02T00:36:43;50.13;39.70;62.09;;
41518;Laerm;27249;48.094;-1.690;2023-04-02T00:39:16;52.18;44.03;62.97;;
41518;Laerm;27249;48.094;-1.690;2023-04-02T00:41:42;49.64;41.61;59.49;;
41518;Laerm;27249;48.094;-1.690;2023-04-02T00:44:15;54.64;43.44;64.01;;
41518;Laerm;27249;48.094;-1.690;2023-04-02T00:46:45;48.74;41.75;63.03;;
41518;Laerm;27249;48.094;-1.690;2023-04-02T00:49:35;52.23;41.68;63.19;;
41518;Laerm;27249;48.094;-1.690;2023-04-02T00:52:00;51.08;42.82;60.52;;
41518;Laerm;27249;48.094;-1.690;2023-04-02T00:54:28;46.72;41.89;58.32;;
41518;Laerm;27249;48.094;-1.690;2023-04-02T00:56:56;51.66;42.09;67.21;;
41518;Laerm;27249;48.094;-1.690;2023-04-02T00:59:34;51.27;42.09;64.57;;
41518;Laerm;27249;48.094;-1.690;2023-04-02T01:04:38;53.49;42.71;67.23;;
41518;Laerm;27249;48.094;-1.690;2023-04-02T01:07:05;51.11;41.22;60.34;;
41518;Laerm;27249;48.094;-1.690;2023-04-02T01:14:49;52.02;40.96;63.27;;
41518;Laerm;27249;48.094;-1.690;2023-04-02T01:25:26;49.06;41.82;63.46;;
41518;Laerm;27249;48.094;-1.690;2023-04-02T01:28:00;45.03;40.03;55.36;;
41518;Laerm;27249;48.094;-1.690;2023-04-02T01:30:30;43.97;41.53;53.07;;
41518;Laerm;27249;48.094;-1.690;2023-04-02T01:32:55;53.91;41.68;73.30;;
41518;Laerm;27249;48.094;-1.690;2023-04-02T01:35:21;49.28;41.68;64.03;;
41518;Laerm;27249;48.094;-1.690;2023-04-02T01:37:58;52.38;41.75;61.75;;
41518;Laerm;27249;48.094;-1.690;2023-04-02T01:40:35;50.36;41.53;63.76;;
41518;Laerm;27249;48.094;-1.690;2023-04-02T01:45:27;50.01;41.68;61.35;;
41518;Laerm;27249;48.094;-1.690;2023-04-02T01:47:53;52.18;41.06;64.02;;
41518;Laerm;27249;48.094;-1.690;2023-04-02T01:50:26;50.93;41.22;62.08;;
41518;Laerm;27249;48.094;-1.690;2023-04-02T01:53:07;47.84;41.06;59.30;;
41518;Laerm;27249;48.094;-1.690;2023-04-02T01:55:38;43.81;40.62;49.02;;
41518;Laerm;27249;48.094;-1.690;2023-04-02T01:58:05;49.21;42.09;58.02;;
41518;Laerm;27249;48.094;-1.690;2023-04-02T02:00:31;48.90;41.53;67.72;;
41518;Laerm;27249;48.094;-1.690;2023-04-02T02:02:58;51.51;41.30;62.57;;
41518;Laerm;27249;48.094;-1.690;2023-04-02T02:05:25;48.39;40.54;60.15;;
41518;Laerm;27249;48.094;-1.690;2023-04-02T02:07:51;50.42;40.53;63.27;;
41518;Laerm;27249;48.094;-1.690;2023-04-02T02:10:18;52.15;41.68;65.13;;
41518;Laerm;27249;48.094;-1.690;2023-04-02T02:12:45;50.92;40.43;64.40;;
41518;Laerm;27249;48.094;-1.690;2023-04-02T02:15:15;46.87;40.13;60.98;;
41518;Laerm;27249;48.094;-1.690;2023-04-02T02:17:41;49.63;41.14;61.95;;
41518;Laerm;27249;48.094;-1.690;2023-04-02T02:20:07;49.78;41.06;61.89;;
41518;Laerm;27249;48.094;-1.690;2023-04-02T02:22:36;46.54;40.62;60.98;;
41518;Laerm;27249;48.094;-1.690;2023-04-02T02:25:09;50.58;41.53;64.26;;
41518;Laerm;27249;48.094;-1.690;2023-04-02T02:30:14;50.41;40.62;63.08;;
41518;Laerm;27249;48.094;-1.690;2023-04-02T02:32:50;51.47;41.68;63.17;;
41518;Laerm;27249;48.094;-1.690;2023-04-02T02:35:17;48.79;40.71;61.59;;
41518;Laerm;27249;48.094;-1.690;2023-04-02T02:37:45;43.32;40.13;47.06;;
41518;Laerm;27249;48.094;-1.690;2023-04-02T02:40:17;48.14;40.89;62.64;;
41518;Laerm;27249;48.094;-1.690;2023-04-02T02:42:51;50.03;40.13;59.91;;
41518;Laerm;27249;48.094;-1.690;2023-04-02T02:45:20;47.45;41.30;60.18;;
41518;Laerm;27249;48.094;-1.690;2023-04-02T02:47:46;47.59;40.98;59.77;;
41518;Laerm;27249;48.094;-1.690;2023-04-02T02:50:22;49.27;41.68;62.53;;
41518;Laerm;27249;48.094;-1.690;2023-04-02T02:52:50;47.03;41.06;56.60;;
41518;Laerm;27249;48.094;-1.690;2023-04-02T02:55:17;53.66;40.62;65.31;;
41518;Laerm;27249;48.094;-1.690;2023-04-02T02:57:45;45.80;39.21;59.65;;
41518;Laerm;27249;48.094;-1.690;2023-04-02T03:00:12;51.64;41.22;62.83;;
41518;Laerm;27249;48.094;-1.690;2023-04-02T03:02:40;51.73;41.61;63.04;;
41518;Laerm;27249;48.094;-1.690;2023-04-02T03:05:06;46.28;41.14;59.80;;
41518;Laerm;27249;48.094;-1.690;2023-04-02T03:07:31;52.51;39.46;68.73;;
41518;Laerm;27249;48.094;-1.690;2023-04-02T03:10:05;51.69;40.53;64.78;;
41518;Laerm;27249;48.094;-1.690;2023-04-02T03:12:38;52.10;41.06;63.77;;
41518;Laerm;27249;48.094;-1.690;2023-04-02T03:15:11;50.21;42.76;60.12;;
41518;Laerm;27249;48.094;-1.690;2023-04-02T03:18:22;49.86;41.68;62.08;;
41518;Laerm;27249;48.094;-1.690;2023-04-02T03:27:50;49.21;40.80;62.71;;
41518;Laerm;27249;48.094;-1.690;2023-04-02T03:30:32;49.38;40.23;61.30;;
41518;Laerm;27249;48.094;-1.690;2023-04-02T03:33:02;51.58;40.33;61.61;;
41518;Laerm;27249;48.094;-1.690;2023-04-02T03:37:54;50.82;41.22;61.63;;
41518;Laerm;27249;48.094;-1.690;2023-04-02T03:40:40;50.13;41.68;63.18;;
41518;Laerm;27249;48.094;-1.690;2023-04-02T03:45:38;51.74;41.46;62.68;;
41518;Laerm;27249;48.094;-1.690;2023-04-02T03:48:12;47.06;41.14;58.30;;
41518;Laerm;27249;48.094;-1.690;2023-04-02T03:50:41;49.94;41.22;60.46;;
41518;Laerm;27249;48.094;-1.690;2023-04-02T03:53:08;51.36;41.46;64.58;;
41518;Laerm;27249;48.094;-1.690;2023-04-02T03:55:36;49.53;42.98;59.78;;
41518;Laerm;27249;48.094;-1.690;2023-04-02T04:03:09;51.77;42.93;62.95;;
41518;Laerm;27249;48.094;-1.690;2023-04-02T04:05:36;51.51;42.47;60.97;;
41518;Laerm;27249;48.094;-1.690;2023-04-02T04:08:04;53.99;42.98;63.08;;
41518;Laerm;27249;48.094;-1.690;2023-04-02T04:10:30;50.47;42.71;63.67;;
41518;Laerm;27249;48.094;-1.690;2023-04-02T04:13:00;52.38;44.11;62.98;;
41518;Laerm;27249;48.094;-1.690;2023-04-02T04:15:31;52.91;43.54;62.29;;
41518;Laerm;27249;48.094;-1.690;2023-04-02T04:18:02;52.22;43.44;61.28;;
41518;Laerm;27249;48.094;-1.690;2023-04-02T04:20:52;55.09;43.94;63.80;;
41518;Laerm;27249;48.094;-1.690;2023-04-02T04:26:28;51.19;43.24;71.17;;
41518;Laerm;27249;48.094;-1.690;2023-04-02T04:31:25;49.46;42.65;60.45;;
41518;Laerm;27249;48.094;-1.690;2023-04-02T04:33:54;51.76;42.22;63.96;;
41518;Laerm;27249;48.094;-1.690;2023-04-02T04:36:34;50.98;42.41;63.86;;
41518;Laerm;27249;48.094;-1.690;2023-04-02T04:39:05;52.41;43.19;64.92;;
41518;Laerm;27249;48.094;-1.690;2023-04-02T04:41:33;51.98;43.54;65.02;;
41518;Laerm;27249;48.094;-1.690;2023-04-02T04:44:20;53.86;42.59;65.83;;
41518;Laerm;27249;48.094;-1.690;2023-04-02T04:47:05;52.68;43.49;65.02;;
41518;Laerm;27249;48.094;-1.690;2023-04-02T04:49:35;52.87;42.93;63.73;;
41518;Laerm;27249;48.094;-1.690;2023-04-02T04:52:19;51.19;43.90;64.89;;
41518;Laerm;27249;48.094;-1.690;2023-04-02T04:54:45;53.46;43.44;67.16;;
41518;Laerm;27249;48.094;-1.690;2023-04-02T04:59:57;52.43;43.29;63.47;;
41518;Laerm;27249;48.094;-1.690;2023-04-02T05:02:30;52.65;43.81;63.18;;
41518;Laerm;27249;48.094;-1.690;2023-04-02T05:04:58;52.55;43.44;65.22;;
41518;Laerm;27249;48.094;-1.690;2023-04-02T05:07:26;54.23;43.90;69.01;;
41518;Laerm;27249;48.094;-1.690;2023-04-02T05:12:47;52.59;43.90;63.62;;
41518;Laerm;27249;48.094;-1.690;2023-04-02T05:20:33;52.38;44.11;61.07;;
41518;Laerm;27249;48.094;-1.690;2023-04-02T05:23:14;52.64;43.49;61.54;;
41518;Laerm;27249;48.094;-1.690;2023-04-02T05:25:51;52.52;43.24;61.88;;
41518;Laerm;27249;48.094;-1.690;2023-04-02T05:28:20;51.88;43.29;63.18;;
41518;Laerm;27249;48.094;-1.690;2023-04-02T05:31:34;52.18;44.19;62.63;;
41518;Laerm;27249;48.094;-1.690;2023-04-02T05:33:38;53.63;45.51;64.40;;
41518;Laerm;27249;48.094;-1.690;2023-04-02T05:36:10;53.12;42.82;63.61;;
41518;Laerm;27249;48.094;-1.690;2023-04-02T05:38:37;53.86;42.98;62.89;;
41518;Laerm;27249;48.094;-1.690;2023-04-02T05:43:44;52.92;44.94;63.30;;
41518;Laerm;27249;48.094;-1.690;2023-04-02T05:46:15;52.20;44.31;63.16;;
41518;Laerm;27249;48.094;-1.690;2023-04-02T05:48:41;51.54;43.14;58.70;;
41518;Laerm;27249;48.094;-1.690;2023-04-02T05:51:10;51.34;43.63;62.02;;
41518;Laerm;27249;48.094;-1.690;2023-04-02T05:56:03;53.96;44.31;60.73;;
41518;Laerm;27249;48.094;-1.690;2023-04-02T05:58:37;50.95;43.19;72.19;;
41518;Laerm;27249;48.094;-1.690;2023-04-02T06:03:52;49.72;43.54;58.36;;
41518;Laerm;27249;48.094;-1.690;2023-04-02T06:07:06;51.00;44.19;60.83;;
41518;Laerm;27249;48.094;-1.690;2023-04-02T06:09:14;52.59;42.88;59.11;;
41518;Laerm;27249;48.094;-1.690;2023-04-02T06:11:46;53.02;43.29;63.09;;
41518;Laerm;27249;48.094;-1.690;2023-04-02T06:14:13;51.82;42.98;62.57;;
41518;Laerm;27249;48.094;-1.690;2023-04-02T06:16:39;53.75;43.58;67.02;;
41518;Laerm;27249;48.094;-1.690;2023-04-02T06:19:07;50.95;43.44;62.56;;
41518;Laerm;27249;48.094;-1.690;2023-04-02T06:21:41;53.40;43.81;64.93;;
41518;Laerm;27249;48.094;-1.690;2023-04-02T06:24:08;52.50;42.98;61.01;;
41518;Laerm;27249;48.094;-1.690;2023-04-02T06:26:37;52.75;43.39;64.50;;
41518;Laerm;27249;48.094;-1.690;2023-04-02T06:29:08;52.61;43.14;63.32;;
41518;Laerm;27249;48.094;-1.690;2023-04-02T06:31:41;50.88;42.93;63.70;;
41518;Laerm;27249;48.094;-1.690;2023-04-02T06:34:15;50.48;43.44;66.43;;
41518;Laerm;27249;48.094;-1.690;2023-04-02T06:36:41;53.24;44.11;62.60;;
41518;Laerm;27249;48.094;-1.690;2023-04-02T06:39:09;52.31;43.63;61.53;;
41518;Laerm;27249;48.094;-1.690;2023-04-02T06:41:35;53.69;45.75;61.19;;
41518;Laerm;27249;48.094;-1.690;2023-04-02T06:44:09;52.63;44.35;61.43;;
41518;Laerm;27249;48.094;-1.690;2023-04-02T06:46:47;54.89;45.66;65.49;;
41518;Laerm;27249;48.094;-1.690;2023-04-02T06:51:41;53.48;45.27;61.54;;
41518;Laerm;27249;48.094;-1.690;2023-04-02T06:54:14;53.57;43.49;64.00;;
41518;Laerm;27249;48.094;-1.690;2023-04-02T06:59:09;53.20;43.81;61.33;;
41518;Laerm;27249;48.094;-1.690;2023-04-02T07:01:47;54.64;45.83;64.76;;
41518;Laerm;27249;48.094;-1.690;2023-04-02T07:04:13;55.04;46.13;62.16;;
41518;Laerm;27249;48.094;-1.690;2023-04-02T07:06:39;54.23;43.94;61.74;;
41518;Laerm;27249;48.094;-1.690;2023-04-02T07:09:05;53.30;44.43;68.70;;
41518;Laerm;27249;48.094;-1.690;2023-04-02T07:11:30;54.23;48.26;67.62;;
41518;Laerm;27249;48.094;-1.690;2023-04-02T07:13:56;54.95;44.62;62.26;;
41518;Laerm;27249;48.094;-1.690;2023-04-02T07:16:22;52.01;45.31;63.91;;
41518;Laerm;27249;48.094;-1.690;2023-04-02T07:18:49;54.33;47.28;66.32;;
41518;Laerm;27249;48.094;-1.690;2023-04-02T07:21:15;54.36;45.97;65.40;;
41518;Laerm;27249;48.094;-1.690;2023-04-02T07:23:40;53.54;44.87;60.82;;
41518;Laerm;27249;48.094;-1.690;2023-04-02T07:26:06;55.46;46.41;68.23;;
41518;Laerm;27249;48.094;-1.690;2023-04-02T07:28:32;55.04;46.30;68.11;;
41518;Laerm;27249;48.094;-1.690;2023-04-02T07:30:58;53.93;46.65;59.89;;
41518;Laerm;27249;48.094;-1.690;2023-04-02T07:33:24;53.77;45.77;71.82;;
41518;Laerm;27249;48.094;-1.690;2023-04-02T07:35:51;53.56;45.54;62.56;;
41518;Laerm;27249;48.094;-1.690;2023-04-02T07:38:17;55.57;49.72;61.37;;
41518;Laerm;27249;48.094;-1.690;2023-04-02T07:40:42;54.67;45.66;63.23;;
41518;Laerm;27249;48.094;-1.690;2023-04-02T07:43:07;54.07;47.30;62.74;;
41518;Laerm;27249;48.094;-1.690;2023-04-02T07:45:33;55.04;45.60;66.61;;
41518;Laerm;27249;48.094;-1.690;2023-04-02T07:48:08;54.18;46.57;62.14;;
41518;Laerm;27249;48.094;-1.690;2023-04-02T07:50:34;55.18;47.83;66.18;;
41518;Laerm;27249;48.094;-1.690;2023-04-02T07:53:00;55.30;46.95;62.48;;
41518;Laerm;27249;48.094;-1.690;2023-04-02T07:55:25;55.63;45.78;64.10;;
41518;Laerm;27249;48.094;-1.690;2023-04-02T07:57:52;53.10;46.97;60.21;;
41518;Laerm;27249;48.094;-1.690;2023-04-02T08:00:18;55.04;46.07;63.56;;
41518;Laerm;27249;48.094;-1.690;2023-04-02T08:02:44;55.09;48.05;62.58;;
41518;Laerm;27249;48.094;-1.690;2023-04-02T08:05:10;56.27;49.51;64.82;;
41518;Laerm;27249;48.094;-1.690;2023-04-02T08:07:36;54.48;47.38;62.34;;
41518;Laerm;27249;48.094;-1.690;2023-04-02T08:10:02;52.36;46.38;58.06;;
41518;Laerm;27249;48.094;-1.690;2023-04-02T08:12:27;55.00;48.58;65.37;;
41518;Laerm;27249;48.094;-1.690;2023-04-02T08:14:52;56.38;49.16;65.57;;
41518;Laerm;27249;48.094;-1.690;2023-04-02T08:17:18;65.09;57.68;71.71;;
41518;Laerm;27249;48.094;-1.690;2023-04-02T08:19:43;65.17;56.74;72.01;;
41518;Laerm;27249;48.094;-1.690;2023-04-02T08:22:09;55.79;48.98;66.94;;
41518;Laerm;27249;48.094;-1.690;2023-04-02T08:24:34;53.04;45.97;59.14;;
41518;Laerm;27249;48.094;-1.690;2023-04-02T08:26:59;53.72;46.15;69.40;;
41518;Laerm;27249;48.094;-1.690;2023-04-02T08:29:26;54.93;48.10;62.53;;
41518;Laerm;27249;48.094;-1.690;2023-04-02T08:31:56;55.13;48.71;64.81;;
41518;Laerm;27249;48.094;-1.690;2023-04-02T08:34:21;55.56;48.71;70.95;;
41518;Laerm;27249;48.094;-1.690;2023-04-02T08:36:46;54.11;48.23;60.72;;
41518;Laerm;27249;48.094;-1.690;2023-04-02T08:39:11;54.81;48.63;64.20;;
41518;Laerm;27249;48.094;-1.690;2023-04-02T08:41:52;54.89;48.29;64.96;;
41518;Laerm;27249;48.094;-1.690;2023-04-02T08:46:55;53.08;45.66;60.39;;
41518;Laerm;27249;48.094;-1.690;2023-04-02T08:49:27;55.69;47.79;61.86;;
41518;Laerm;27249;48.094;-1.690;2023-04-02T08:51:53;54.50;47.24;63.27;;
41518;Laerm;27249;48.094;-1.690;2023-04-02T08:56:52;55.17;47.20;61.84;;
41518;Laerm;27249;48.094;-1.690;2023-04-02T08:59:26;53.88;48.13;63.40;;
41518;Laerm;27249;48.094;-1.690;2023-04-02T09:04:38;54.45;45.39;65.72;;
41518;Laerm;27249;48.094;-1.690;2023-04-02T09:07:07;55.33;48.76;63.58;;
41518;Laerm;27249;48.094;-1.690;2023-04-02T09:09:35;56.10;47.00;71.61;;
41518;Laerm;27249;48.094;-1.690;2023-04-02T09:12:02;54.54;46.57;62.11;;
41518;Laerm;27249;48.094;-1.690;2023-04-02T09:17:03;55.73;48.12;63.70;;
41518;Laerm;27249;48.094;-1.690;2023-04-02T09:19:32;69.32;47.06;86.86;;
41518;Laerm;27249;48.094;-1.690;2023-04-02T09:24:40;56.66;46.66;69.43;;
41518;Laerm;27249;48.094;-1.690;2023-04-02T09:27:13;54.42;46.57;61.56;;
41518;Laerm;27249;48.094;-1.690;2023-04-02T09:29:45;55.34;47.98;64.55;;
41518;Laerm;27249;48.094;-1.690;2023-04-02T09:35:03;54.75;47.63;62.81;;
41518;Laerm;27249;48.094;-1.690;2023-04-02T09:37:30;55.26;47.54;62.44;;
41518;Laerm;27249;48.094;-1.690;2023-04-02T09:40:08;53.82;46.50;63.56;;
41518;Laerm;27249;48.094;-1.690;2023-04-02T09:42:35;55.21;47.54;61.84;;
41518;Laerm;27249;48.094;-1.690;2023-04-02T09:45:12;55.54;49.27;67.48;;
41518;Laerm;27249;48.094;-1.690;2023-04-02T09:47:38;56.01;50.18;65.84;;
41518;Laerm;27249;48.094;-1.690;2023-04-02T09:52:47;54.31;48.51;71.88;;
41518;Laerm;27249;48.094;-1.690;2023-04-02T09:57:38;54.68;48.36;62.26;;
41518;Laerm;27249;48.094;-1.690;2023-04-02T10:02:58;55.18;46.89;67.23;;
41518;Laerm;27249;48.094;-1.690;2023-04-02T10:05:24;56.00;46.89;72.91;;
41518;Laerm;27249;48.094;-1.690;2023-04-02T10:07:51;54.25;48.96;68.62;;
41518;Laerm;27249;48.094;-1.690;2023-04-02T10:15:32;54.71;46.07;63.20;;
41518;Laerm;27249;48.094;-1.690;2023-04-02T10:18:04;56.54;48.32;64.00;;
41518;Laerm;27249;48.094;-1.690;2023-04-02T10:20:31;54.62;45.60;61.96;;
41518;Laerm;27249;48.094;-1.690;2023-04-02T10:22:57;55.23;46.25;61.13;;
41518;Laerm;27249;48.094;-1.690;2023-04-02T10:25:23;55.72;48.60;62.78;;
41518;Laerm;27249;48.094;-1.690;2023-04-02T10:27:51;57.58;47.48;76.72;;
41518;Laerm;27249;48.094;-1.690;2023-04-02T10:32:59;55.51;46.50;67.10;;
41518;Laerm;27249;48.094;-1.690;2023-04-02T10:48:25;54.76;46.69;63.07;;
41518;Laerm;27249;48.094;-1.690;2023-04-02T10:50:57;55.35;48.07;62.69;;
41518;Laerm;27249;48.094;-1.690;2023-04-02T10:53:46;62.60;47.83;81.02;;
41518;Laerm;27249;48.094;-1.690;2023-04-02T10:56:16;58.64;47.83;80.02;;
41518;Laerm;27249;48.094;-1.690;2023-04-02T10:58:47;55.87;48.64;65.07;;
41518;Laerm;27249;48.094;-1.690;2023-04-02T11:01:18;55.31;46.59;66.30;;
41518;Laerm;27249;48.094;-1.690;2023-04-02T11:03:49;56.19;47.83;63.41;;
41518;Laerm;27249;48.094;-1.690;2023-04-02T11:06:19;56.03;46.93;64.53;;
41518;Laerm;27249;48.094;-1.690;2023-04-02T11:08:47;56.44;49.73;70.03;;
41518;Laerm;27249;48.094;-1.690;2023-04-02T11:11:14;55.33;47.54;63.83;;
41518;Laerm;27249;48.094;-1.690;2023-04-02T11:16:12;54.32;45.89;62.72;;
41518;Laerm;27249;48.094;-1.690;2023-04-02T11:18:40;55.46;45.39;67.41;;
41518;Laerm;27249;48.094;-1.690;2023-04-02T11:23:53;55.53;47.72;61.98;;
41518;Laerm;27249;48.094;-1.690;2023-04-02T11:26:35;53.94;46.23;65.81;;
41518;Laerm;27249;48.094;-1.690;2023-04-02T11:50:33;58.20;46.55;74.06;;
41518;Laerm;27249;48.094;-1.690;2023-04-02T11:55:25;56.64;47.59;62.43;;
41518;Laerm;27249;48.094;-1.690;2023-04-02T11:57:56;54.61;46.64;65.23;;
41518;Laerm;27249;48.094;-1.690;2023-04-02T12:05:37;56.46;49.75;64.50;;
41518;Laerm;27249;48.094;-1.690;2023-04-02T12:16:03;56.53;48.12;76.19;;
41518;Laerm;27249;48.094;-1.690;2023-04-02T12:18:30;56.55;46.71;66.77;;
41518;Laerm;27249;48.094;-1.690;2023-04-02T12:20:55;55.83;46.89;61.83;;
41518;Laerm;27249;48.094;-1.690;2023-04-02T12:23:23;55.70;46.35;63.72;;
41518;Laerm;27249;48.094;-1.690;2023-04-02T12:25:52;55.70;47.34;65.85;;
41518;Laerm;27249;48.094;-1.690;2023-04-02T12:28:19;56.77;47.32;65.47;;
41518;Laerm;27249;48.094;-1.690;2023-04-02T12:30:46;56.80;46.76;65.68;;
41518;Laerm;27249;48.094;-1.690;2023-04-02T12:35:40;58.61;47.65;74.26;;
41518;Laerm;27249;48.094;-1.690;2023-04-02T12:38:22;54.75;45.39;61.75;;
41518;Laerm;27249;48.094;-1.690;2023-04-02T12:40:51;56.52;45.97;68.64;;
41518;Laerm;27249;48.094;-1.690;2023-04-02T12:43:24;57.25;50.00;63.99;;
41518;Laerm;27249;48.094;-1.690;2023-04-02T12:45:50;55.81;48.99;65.73;;
41518;Laerm;27249;48.094;-1.690;2023-04-02T12:48:15;55.30;46.97;64.38;;
41518;Laerm;27249;48.094;-1.690;2023-04-02T12:50:41;54.05;45.77;70.84;;
41518;Laerm;27249;48.094;-1.690;2023-04-02T12:53:11;55.36;46.13;67.51;;
41518;Laerm;27249;48.094;-1.690;2023-04-02T12:55:45;55.11;47.18;66.99;;
41518;Laerm;27249;48.094;-1.690;2023-04-02T12:58:27;56.10;49.21;63.22;;
41518;Laerm;27249;48.094;-1.690;2023-04-02T13:01:07;56.40;49.77;63.90;;
41518;Laerm;27249;48.094;-1.690;2023-04-02T13:03:33;57.08;47.52;66.28;;
41518;Laerm;27249;48.094;-1.690;2023-04-02T13:05:58;56.03;49.34;68.15;;
41518;Laerm;27249;48.094;-1.690;2023-04-02T13:08:25;55.02;44.19;74.23;;
41518;Laerm;27249;48.094;-1.690;2023-04-02T13:10:59;55.23;46.91;62.13;;
41518;Laerm;27249;48.094;-1.690;2023-04-02T13:13:26;56.89;50.81;68.27;;
41518;Laerm;27249;48.094;-1.690;2023-04-02T13:15:59;55.14;48.87;66.63;;
41518;Laerm;27249;48.094;-1.690;2023-04-02T13:18:24;56.73;47.91;66.62;;
41518;Laerm;27249;48.094;-1.690;2023-04-02T13:21:32;55.58;48.15;62.95;;
41518;Laerm;27249;48.094;-1.690;2023-04-02T13:23:38;55.12;45.14;61.31;;
41518;Laerm;27249;48.094;-1.690;2023-04-02T13:31:30;56.02;46.89;65.94;;
41518;Laerm;27249;48.094;-1.690;2023-04-02T13:33:56;55.52;47.74;64.26;;
41518;Laerm;27249;48.094;-1.690;2023-04-02T13:36:22;55.04;48.52;61.74;;
41518;Laerm;27249;48.094;-1.690;2023-04-02T13:38:47;55.61;48.71;72.39;;
41518;Laerm;27249;48.094;-1.690;2023-04-02T13:41:31;56.06;48.10;64.47;;
41518;Laerm;27249;48.094;-1.690;2023-04-02T13:43:58;54.15;46.52;71.57;;
41518;Laerm;27249;48.094;-1.690;2023-04-02T13:46:26;55.01;46.30;62.21;;
41518;Laerm;27249;48.094;-1.690;2023-04-02T13:48:52;55.11;44.83;61.90;;
41518;Laerm;27249;48.094;-1.690;2023-04-02T13:51:19;54.01;46.07;59.97;;
41518;Laerm;27249;48.094;-1.690;2023-04-02T13:53:48;54.24;46.23;62.94;;
41518;Laerm;27249;48.094;-1.690;2023-04-02T13:56:15;53.24;46.18;58.54;;
41518;Laerm;27249;48.094;-1.690;2023-04-02T13:58:41;55.56;49.38;66.92;;
41518;Laerm;27249;48.094;-1.690;2023-04-02T14:01:06;55.16;47.28;63.84;;
41518;Laerm;27249;48.094;-1.690;2023-04-02T14:03:31;54.43;45.01;62.96;;
41518;Laerm;27249;48.094;-1.690;2023-04-02T14:09:09;53.71;46.35;61.02;;
41518;Laerm;27249;48.094;-1.690;2023-04-02T14:29:38;60.80;48.21;81.44;;
41518;Laerm;27249;48.094;-1.690;2023-04-02T14:32:06;53.88;44.31;62.35;;
41518;Laerm;27249;48.094;-1.690;2023-04-02T14:34:50;55.56;50.00;63.29;;
41518;Laerm;27249;48.094;-1.690;2023-04-02T14:37:38;54.15;46.57;63.60;;
41518;Laerm;27249;48.094;-1.690;2023-04-02T14:40:14;55.02;48.52;61.14;;
41518;Laerm;27249;48.094;-1.690;2023-04-02T14:42:59;55.00;48.73;59.80;;
41518;Laerm;27249;48.094;-1.690;2023-04-02T14:48:19;54.54;46.59;62.38;;
41518;Laerm;27249;48.094;-1.690;2023-04-02T14:50:52;55.47;47.90;63.72;;
41518;Laerm;27249;48.094;-1.690;2023-04-02T14:53:22;54.73;47.74;62.72;;
41518;Laerm;27249;48.094;-1.690;2023-04-02T14:55:48;54.28;44.73;65.55;;
41518;Laerm;27249;48.094;-1.690;2023-04-02T14:58:24;54.41;46.66;62.55;;
41518;Laerm;27249;48.094;-1.690;2023-04-02T15:00:54;56.10;49.16;69.24;;
41518;Laerm;27249;48.094;-1.690;2023-04-02T15:03:24;54.43;47.59;63.06;;
41518;Laerm;27249;48.094;-1.690;2023-04-02T15:05:53;55.48;48.57;63.16;;
41518;Laerm;27249;48.094;-1.690;2023-04-02T15:08:26;55.38;47.40;69.50;;
41518;Laerm;27249;48.094;-1.690;2023-04-02T15:16:12;56.21;47.20;62.37;;
41518;Laerm;27249;48.094;-1.690;2023-04-02T15:18:40;55.29;47.79;64.28;;
41518;Laerm;27249;48.094;-1.690;2023-04-02T15:23:51;58.17;49.09;69.59;;
41518;Laerm;27249;48.094;-1.690;2023-04-02T15:29:06;55.23;45.48;64.61;;
41518;Laerm;27249;48.094;-1.690;2023-04-02T15:31:34;56.58;45.14;68.61;;
41518;Laerm;27249;48.094;-1.690;2023-04-02T15:34:14;55.62;45.45;65.70;;
41518;Laerm;27249;48.094;-1.690;2023-04-02T15:42:01;56.94;48.40;62.94;;
41518;Laerm;27249;48.094;-1.690;2023-04-02T15:44:28;55.28;45.11;62.09;;
41518;Laerm;27249;48.094;-1.690;2023-04-02T15:46:56;55.08;44.23;65.54;;
41518;Laerm;27249;48.094;-1.690;2023-04-02T15:50:10;56.52;47.67;65.05;;
41518;Laerm;27249;48.094;-1.690;2023-04-02T15:52:30;56.52;48.28;62.78;;
41518;Laerm;27249;48.094;-1.690;2023-04-02T15:57:48;54.87;44.58;61.64;;
41518;Laerm;27249;48.094;-1.690;2023-04-02T16:10:18;56.21;47.65;66.45;;
41518;Laerm;27249;48.094;-1.690;2023-04-02T16:12:48;56.35;45.72;70.78;;
41518;Laerm;27249;48.094;-1.690;2023-04-02T16:17:52;56.40;49.98;62.73;;
41518;Laerm;27249;48.094;-1.690;2023-04-02T16:20:33;56.53;49.36;65.12;;
41518;Laerm;27249;48.094;-1.690;2023-04-02T16:23:10;58.93;49.02;70.60;;
41518;Laerm;27249;48.094;-1.690;2023-04-02T16:25:48;56.10;48.10;63.66;;
41518;Laerm;27249;48.094;-1.690;2023-04-02T16:28:22;55.75;46.75;72.33;;
41518;Laerm;27249;48.094;-1.690;2023-04-02T16:30:51;55.41;43.63;64.06;;
41518;Laerm;27249;48.094;-1.690;2023-04-02T16:35:50;56.97;49.20;65.79;;
41518;Laerm;27249;48.094;-1.690;2023-04-02T16:43:40;55.27;47.38;63.03;;
41518;Laerm;27249;48.094;-1.690;2023-04-02T16:46:15;55.95;46.18;68.52;;
41518;Laerm;27249;48.094;-1.690;2023-04-02T16:48:47;56.23;47.32;68.38;;
41518;Laerm;27249;48.094;-1.690;2023-04-02T16:53:59;56.15;48.23;68.28;;
41518;Laerm;27249;48.094;-1.690;2023-04-02T16:56:42;56.49;46.07;64.40;;
41518;Laerm;27249;48.094;-1.690;2023-04-02T17:01:55;54.97;43.77;66.45;;
41518;Laerm;27249;48.094;-1.690;2023-04-02T17:04:44;58.29;47.24;71.43;;
41518;Laerm;27249;48.094;-1.690;2023-04-02T17:12:42;60.22;47.91;78.36;;
41518;Laerm;27249;48.094;-1.690;2023-04-02T17:15:19;57.51;47.79;68.51;;
41518;Laerm;27249;48.094;-1.690;2023-04-02T17:17:46;55.35;45.69;63.44;;
41518;Laerm;27249;48.094;-1.690;2023-04-02T17:20:19;55.84;45.42;65.73;;
41518;Laerm;27249;48.094;-1.690;2023-04-02T17:22:46;55.14;47.34;66.08;;
41518;Laerm;27249;48.094;-1.690;2023-04-02T17:25:29;58.24;46.69;72.08;;
41518;Laerm;27249;48.094;-1.690;2023-04-02T17:27:55;56.04;45.83;67.81;;
41518;Laerm;27249;48.094;-1.690;2023-04-02T17:30:40;55.92;49.16;66.93;;
41518;Laerm;27249;48.094;-1.690;2023-04-02T17:33:14;56.98;46.33;65.35;;
41518;Laerm;27249;48.094;-1.690;2023-04-02T17:36:01;55.76;45.72;64.89;;
41518;Laerm;27249;48.094;-1.690;2023-04-02T17:43:44;55.68;44.97;68.06;;
41518;Laerm;27249;48.094;-1.690;2023-04-02T17:48:40;55.64;46.95;71.43;;
41518;Laerm;27249;48.094;-1.690;2023-04-02T17:51:23;54.70;47.14;62.35;;
41518;Laerm;27249;48.094;-1.690;2023-04-02T17:54:03;56.68;47.52;71.22;;
41518;Laerm;27249;48.094;-1.690;2023-04-02T18:01:33;55.80;44.31;74.08;;
41518;Laerm;27249;48.094;-1.690;2023-04-02T18:22:48;54.37;43.68;63.22;;
41518;Laerm;27249;48.094;-1.690;2023-04-02T18:30:35;56.07;48.49;63.35;;